Yarras Mount Seaview, New South Wales

4:18 AM AEST on September 03, 2015 (GMT +1000)
Taree | | Change Station
CLOSE
Current Station
Airport
Location: Taree,
Elevation: 39 ft
Nearby Weather Stations

Elev 39 ft 31.89 °S, 152.51 °E | Updated 18 minutes ago

Scattered Clouds
Scattered Clouds
55 °F
Feels Like 55 °F
N
6
Wind Variable Wind from WSW

Today
High -- | Low -- °F
--% Chance of Precip.
Yesterday
High -- | Low -- °F
Precip. -- in
6:05 AM 5:35 PM
Waning Gibbous, 78% visible
Pressure 29.71 in
Visibility 6.2 miles
Clouds Scattered Clouds 10000 ft
Scattered Clouds 12500 ft
Dew Point 54 °F
Humidity 94%
Rainfall 0.00 in
Snow Depth Not available.
UV 0 out of 12
Pollen Not available.
Air Quality Not available.
Flu Activity Not available.
METAR YTRE 021800Z AUTO 25005KT 9999 // SCT100 SCT125 13/12 Q1006
Pressure 29.71 in
Visibility 6.2 miles
Clouds Scattered Clouds 10000 ft
Scattered Clouds 12500 ft
Dew Point 54 °F
Humidity 94%
Rainfall 0.00 in
Snow Depth Not available.
UV 0 out of 12
Pollen Not available.
Air Quality Not available.
Flu Activity Not available.
METAR YTRE 021800Z AUTO 25005KT 9999 // SCT100 SCT125 13/12 Q1006

10-Day Weather Forecast

×

Almanac

Astronomy

Sep. 03, 2015 Rise Set
Actual Time
Civil Twilight
Nautical Twilight
Astronomical Twilight
Moon
Length of Visible Light
Length of Day
Tomorrow will be .
, % of the Moon is Illuminated

Today's Extremes

Country Highs Country Lows

Community

WunderPhotos

Upload Photos

1,851,790 photos uploaded!

WunderBlogs® & News

Nearby

Air Quality

  Air Quality AQ Index Pollutant
Not available.

Snow Depth

Station Depth Elevation

Earthquake Activity

City Distance Mag. Time & Date
Minimum magnitude displayed is 2.5.

Coastal Water Temperatures

Place Temperature

Stations

Nearby Weather Stations

Station Location Temp. Windchill Dew Point Humidity Wind Precip. Elev Updated Type